createdAt,value
2019-04-06T00:00:49.319Z,42.80
2019-04-06T00:03:18.711Z,43.42
2019-04-06T00:05:48.296Z,45.47
2019-04-06T00:08:18.973Z,42.90
2019-04-06T00:10:48.675Z,48.45
2019-04-06T00:13:18.079Z,44.40
2019-04-06T00:15:47.616Z,44.03
2019-04-06T00:18:17.035Z,43.70
2019-04-06T00:20:46.455Z,46.50
2019-04-06T00:23:16.010Z,45.47
2019-04-06T00:25:45.422Z,45.80
2019-04-06T00:28:14.869Z,45.03
2019-04-06T00:30:57.623Z,46.57
2019-04-06T00:33:27.448Z,45.75
2019-04-06T00:35:56.863Z,49.37
2019-04-06T00:38:26.562Z,49.60
2019-04-06T00:40:56.000Z,49.48
2019-04-06T00:43:25.846Z,50.03
2019-04-06T00:45:55.431Z,50.53
2019-04-06T00:48:24.835Z,47.65
2019-04-06T00:50:54.305Z,51.60
2019-04-06T00:53:23.859Z,50.10
2019-04-06T00:55:55.754Z,51.60
2019-04-06T00:58:24.460Z,51.93
2019-04-06T01:00:54.097Z,49.25
2019-04-06T01:03:23.610Z,51.93
2019-04-06T01:05:53.036Z,50.70
2019-04-06T01:08:22.604Z,49.53
2019-04-06T01:10:52.129Z,50.38
2019-04-06T01:13:21.638Z,48.75
2019-04-06T01:15:51.292Z,49.27
2019-04-06T01:18:20.766Z,48.77
2019-04-06T01:20:50.266Z,52.45
2019-04-06T01:23:19.980Z,50.33
2019-04-06T01:25:49.418Z,51.03
2019-04-06T01:28:18.917Z,49.65
2019-04-06T01:30:48.692Z,49.13
2019-04-06T01:33:18.283Z,49.97
2019-04-06T01:35:48.713Z,47.15
2019-04-06T01:38:21.550Z,49.98
2019-04-06T01:40:52.172Z,49.90
2019-04-06T01:43:21.628Z,50.98
2019-04-06T01:45:52.688Z,49.18
2019-04-06T01:48:22.119Z,47.07
2019-04-06T01:50:53.373Z,49.43
2019-04-06T01:53:23.044Z,50.38
2019-04-06T01:55:52.420Z,50.33
2019-04-06T01:58:21.822Z,50.13
2019-04-06T02:01:04.976Z,48.60
2019-04-06T02:03:34.371Z,46.80
2019-04-06T02:06:04.229Z,48.40
2019-04-06T02:08:34.051Z,50.87
2019-04-06T02:11:03.467Z,48.03
2019-04-06T02:13:33.916Z,48.33
2019-04-06T02:16:03.352Z,47.80
2019-04-06T02:18:32.758Z,46.03
2019-04-06T02:21:02.186Z,46.43
2019-04-06T02:23:31.720Z,49.63
2019-04-06T02:26:02.383Z,46.83
2019-04-06T02:28:32.882Z,48.90
2019-04-06T02:31:15.993Z,46.77
2019-04-06T02:34:16.537Z,48.33
2019-04-06T02:37:17.093Z,46.63
2019-04-06T02:39:56.189Z,44.13
2019-04-06T02:42:35.313Z,44.20
2019-04-06T02:45:05.053Z,46.13
2019-04-06T02:47:34.683Z,47.67
2019-04-06T02:50:05.418Z,45.57
2019-04-06T02:52:34.835Z,45.57
2019-04-06T02:55:04.338Z,48.27
2019-04-06T02:57:33.906Z,46.37
2019-04-06T03:00:03.329Z,49.40
2019-04-06T03:02:53.020Z,50.37
2019-04-06T03:05:22.475Z,48.83
2019-04-06T03:07:51.902Z,48.97
2019-04-06T03:10:21.572Z,47.53
2019-04-06T03:12:50.965Z,47.13
2019-04-06T03:15:20.364Z,48.10
2019-04-06T03:17:50.886Z,49.70
2019-04-06T03:20:20.472Z,47.07
2019-04-06T03:22:50.017Z,47.87
2019-04-06T03:25:21.470Z,47.90
2019-04-06T03:27:53.983Z,45.35
2019-04-06T03:30:23.655Z,46.00
2019-04-06T03:32:53.215Z,47.38
2019-04-06T03:35:22.645Z,45.52
2019-04-06T03:37:52.055Z,47.17
2019-04-06T03:40:21.493Z,45.87
2019-04-06T03:42:51.076Z,47.67
2019-04-06T03:45:20.485Z,48.87
2019-04-06T03:47:50.034Z,47.50
2019-04-06T03:50:19.469Z,46.30
2019-04-06T03:52:48.897Z,45.98
2019-04-06T03:55:19.220Z,46.83
2019-04-06T03:57:48.705Z,46.63
2019-04-06T04:00:18.484Z,48.20
2019-04-06T04:02:48.005Z,47.03
2019-04-06T04:05:17.391Z,48.20
2019-04-06T04:07:46.798Z,47.23
2019-04-06T04:10:31.515Z,46.70
2019-04-06T04:13:01.241Z,47.40
2019-04-06T04:15:30.665Z,47.33
2019-04-06T04:18:00.253Z,47.10
2019-04-06T04:20:29.645Z,48.65
2019-04-06T04:22:59.138Z,48.57
2019-04-06T04:25:28.630Z,51.63
2019-04-06T04:27:58.456Z,47.05
2019-04-06T04:30:33.410Z,47.83
2019-04-06T04:33:00.562Z,50.77
2019-04-06T04:35:30.282Z,49.33
2019-04-06T04:37:59.765Z,49.10
2019-04-06T04:40:29.412Z,49.97
2019-04-06T04:42:58.867Z,49.10
2019-04-06T04:45:28.326Z,50.58
2019-04-06T04:47:57.931Z,50.33
2019-04-06T04:50:27.522Z,50.93
2019-04-06T04:52:57.068Z,50.88
2019-04-06T04:55:26.621Z,49.53
2019-04-06T04:57:56.012Z,50.60
2019-04-06T05:00:25.820Z,51.02
2019-04-06T05:02:56.877Z,50.63
2019-04-06T05:05:27.381Z,50.50
2019-04-06T05:07:56.823Z,50.87
2019-04-06T05:10:26.368Z,49.23
2019-04-06T05:12:55.936Z,49.63
2019-04-06T05:15:52.716Z,49.65
2019-04-06T05:18:22.134Z,48.00
2019-04-06T05:20:51.554Z,50.63
2019-04-06T05:23:21.099Z,50.80
2019-04-06T05:25:50.507Z,56.05
2019-04-06T05:28:19.937Z,53.13
2019-04-06T05:30:49.665Z,54.05
2019-04-06T05:33:19.081Z,55.57
2019-04-06T05:35:48.480Z,52.33
2019-04-06T05:38:17.938Z,53.00
2019-04-06T05:40:47.341Z,55.50
2019-04-06T05:43:16.728Z,55.50
2019-04-06T05:45:46.179Z,57.10
2019-04-06T05:48:18.779Z,60.93
2019-04-06T05:50:48.316Z,61.47
2019-04-06T05:53:18.109Z,64.07
2019-04-06T05:55:47.511Z,61.57
2019-04-06T05:58:16.907Z,63.40
2019-04-06T06:00:46.449Z,64.13
2019-04-06T06:03:16.111Z,64.57
2019-04-06T06:05:45.540Z,66.23
2019-04-06T06:08:15.320Z,63.87
2019-04-06T06:10:47.449Z,66.60
2019-04-06T06:13:16.825Z,67.30
2019-04-06T06:15:46.486Z,67.20
2019-04-06T06:18:25.604Z,68.47
2019-04-06T06:20:48.351Z,65.00
2019-04-06T06:23:18.356Z,68.43
2019-04-06T06:25:48.047Z,66.60
2019-04-06T06:28:17.658Z,71.23
2019-04-06T06:30:47.195Z,74.90
2019-04-06T06:33:16.777Z,71.00
2019-04-06T06:35:46.366Z,76.80
2019-04-06T06:38:15.990Z,73.03
2019-04-06T06:40:45.593Z,71.63
2019-04-06T06:43:15.227Z,73.20
2019-04-06T06:45:48.335Z,76.47
2019-04-06T06:48:17.741Z,77.30
2019-04-06T06:50:47.392Z,76.07
2019-04-06T06:53:16.970Z,76.00
2019-04-06T06:58:39.007Z,77.83
2019-04-06T07:01:09.552Z,72.60
2019-04-06T07:03:39.971Z,69.70
2019-04-06T07:06:09.827Z,73.00
2019-04-06T07:08:39.680Z,72.20
2019-04-06T07:11:09.207Z,72.73
2019-04-06T07:13:38.773Z,72.47
2019-04-06T07:16:08.180Z,72.60
2019-04-06T07:18:37.596Z,72.10
2019-04-06T07:21:07.183Z,72.40
2019-04-06T07:23:36.688Z,66.03
2019-04-06T07:26:06.238Z,65.13
2019-04-06T07:28:38.639Z,70.30
2019-04-06T07:31:07.111Z,67.90
2019-04-06T07:33:36.684Z,63.50
2019-04-06T07:36:06.251Z,63.67
2019-04-06T07:38:37.883Z,66.17
2019-04-06T07:41:06.902Z,66.00
2019-04-06T07:43:36.456Z,64.77
2019-04-06T07:46:06.122Z,64.87
2019-04-06T07:48:35.569Z,60.13
2019-04-06T07:51:09.131Z,63.50
2019-04-06T07:53:38.540Z,62.70
2019-04-06T07:56:08.154Z,59.23
2019-04-06T07:58:48.051Z,61.70
2019-04-06T08:01:08.906Z,59.70
2019-04-06T08:03:38.413Z,58.13
2019-04-06T08:06:08.231Z,57.17
2019-04-06T08:08:39.923Z,56.63
2019-04-06T08:11:09.550Z,59.60
2019-04-06T08:13:39.555Z,57.97
2019-04-06T08:16:08.977Z,58.43
2019-04-06T08:18:38.394Z,56.83
2019-04-06T08:21:08.052Z,56.37
2019-04-06T08:23:37.545Z,57.23
2019-04-06T08:26:06.958Z,54.73
2019-04-06T08:28:36.458Z,57.00
2019-04-06T08:31:05.862Z,50.40
2019-04-06T08:33:35.391Z,54.40
2019-04-06T08:36:05.196Z,56.37
2019-04-06T08:38:34.722Z,54.97
2019-04-06T08:41:04.631Z,55.53
2019-04-06T08:43:34.138Z,57.57
2019-04-06T08:46:03.588Z,53.63
2019-04-06T08:48:34.064Z,52.37
2019-04-06T08:51:03.663Z,53.33
2019-04-06T08:53:34.306Z,51.13
2019-04-06T08:56:05.097Z,49.93
2019-04-06T08:58:36.830Z,52.87
2019-04-06T09:01:06.246Z,48.50
2019-04-06T09:03:35.675Z,52.60
2019-04-06T09:06:05.330Z,50.03
2019-04-06T09:08:34.733Z,50.97
2019-04-06T09:11:04.125Z,47.53
2019-04-06T09:13:34.047Z,50.30
2019-04-06T09:16:03.980Z,54.07
2019-04-06T09:18:33.860Z,48.80
2019-04-06T09:21:03.361Z,50.47
2019-04-06T09:23:32.764Z,48.93
2019-04-06T09:26:02.380Z,49.10
2019-04-06T09:28:31.936Z,47.27
2019-04-06T09:31:01.355Z,48.33
2019-04-06T09:33:30.794Z,51.63
2019-04-06T09:36:02.294Z,46.90
2019-04-06T09:38:31.489Z,44.73
2019-04-06T09:41:02.803Z,46.30
2019-04-06T09:43:32.706Z,47.70
2019-04-06T09:46:27.183Z,45.50
2019-04-06T09:49:18.526Z,45.53
2019-04-06T09:52:15.675Z,46.47
2019-04-06T09:55:05.142Z,47.17
2019-04-06T09:57:52.186Z,45.30
2019-04-06T10:00:39.767Z,43.13
2019-04-06T10:03:28.088Z,46.10
2019-04-06T10:06:25.677Z,44.77
2019-04-06T10:09:04.161Z,45.73
2019-04-06T10:12:03.411Z,43.23
2019-04-06T10:14:53.997Z,43.30
2019-04-06T10:17:58.592Z,43.37
2019-04-06T10:21:06.527Z,41.10
2019-04-06T10:23:54.881Z,41.43
2019-04-06T10:26:34.540Z,39.97
2019-04-06T10:29:22.922Z,43.17
2019-04-06T10:32:03.564Z,41.05
2019-04-06T10:34:43.201Z,45.03
2019-04-06T10:37:31.634Z,42.93
2019-04-06T10:40:25.834Z,41.83
2019-04-06T10:43:29.760Z,40.88
2019-04-06T10:46:17.049Z,40.92
2019-04-06T10:48:55.312Z,40.73
2019-04-06T10:51:34.966Z,44.20
2019-04-06T10:54:14.687Z,42.77
2019-04-06T10:56:55.738Z,45.20
2019-04-06T11:00:03.600Z,41.60
2019-04-06T11:03:04.049Z,40.13
2019-04-06T11:05:40.876Z,39.90
2019-04-06T11:08:19.565Z,39.63
2019-04-06T11:10:57.931Z,41.67
2019-04-06T11:13:47.975Z,41.08
2019-04-06T11:16:48.199Z,41.00
2019-04-06T11:19:25.979Z,34.70
2019-04-06T11:22:08.081Z,34.67
2019-04-06T11:24:58.555Z,37.20
2019-04-06T11:27:55.564Z,38.02
2019-04-06T11:30:47.086Z,38.15
2019-04-06T11:33:25.788Z,38.13
2019-04-06T11:36:14.145Z,35.13
2019-04-06T11:39:10.038Z,32.40
2019-04-06T11:41:57.326Z,29.90
2019-04-06T11:44:46.250Z,30.37
2019-04-06T11:47:34.972Z,28.67
2019-04-06T11:50:21.898Z,29.10
2019-04-06T11:53:08.096Z,29.30
2019-04-06T11:55:47.083Z,28.43
2019-04-06T11:58:25.186Z,29.57
2019-04-06T12:01:12.434Z,30.33
2019-04-06T12:03:59.515Z,30.63
2019-04-06T12:07:00.974Z,30.50
2019-04-06T12:09:50.546Z,30.33
2019-04-06T12:12:37.686Z,30.53
2019-04-06T12:15:32.516Z,27.73
2019-04-06T12:18:29.956Z,31.02
2019-04-06T12:21:18.614Z,31.20
2019-04-06T12:24:07.071Z,29.50
2019-04-06T12:26:43.633Z,29.70
2019-04-06T12:29:34.475Z,29.83
2019-04-06T12:32:25.789Z,31.17
2019-04-06T12:35:04.172Z,33.30
2019-04-06T12:37:42.688Z,32.60
2019-04-06T12:40:27.866Z,32.17
2019-04-06T12:43:21.731Z,32.35
2019-04-06T12:46:16.073Z,30.40
2019-04-06T12:48:52.731Z,29.17
2019-04-06T12:51:54.047Z,32.43
2019-04-06T12:54:36.747Z,30.77
2019-04-06T12:57:15.801Z,29.17
2019-04-06T13:00:10.720Z,29.23
2019-04-06T13:02:57.901Z,29.57
2019-04-06T13:06:05.326Z,33.03
2019-04-06T13:08:51.471Z,27.50
2019-04-06T13:11:42.773Z,26.90
2019-04-06T13:14:40.141Z,28.30
2019-04-06T13:17:15.563Z,28.23
2019-04-06T13:20:03.429Z,27.53
2019-04-06T13:22:56.017Z,26.87
2019-04-06T13:25:42.396Z,24.47
2019-04-06T13:28:48.924Z,25.97
2019-04-06T13:31:28.030Z,25.57
2019-04-06T13:34:15.171Z,26.77
2019-04-06T13:37:13.211Z,24.27
2019-04-06T13:40:08.820Z,26.07
2019-04-06T13:43:00.640Z,23.83
2019-04-06T13:46:11.224Z,22.77
2019-04-06T13:48:59.016Z,23.30
2019-04-06T13:51:48.415Z,23.20
2019-04-06T13:54:36.980Z,21.07
2019-04-06T13:57:28.210Z,21.83
2019-04-06T14:00:20.007Z,21.42
2019-04-06T14:03:20.608Z,21.53
2019-04-06T14:06:07.673Z,18.87
2019-04-06T14:09:05.242Z,20.03
2019-04-06T14:11:51.003Z,20.27
2019-04-06T14:14:49.094Z,19.17
2019-04-06T14:17:56.034Z,18.20
2019-04-06T14:20:40.398Z,20.67
2019-04-06T14:23:31.896Z,18.03
2019-04-06T14:26:20.153Z,19.25
2019-04-06T14:28:56.274Z,18.67
2019-04-06T14:31:46.977Z,18.77
2019-04-06T14:34:47.229Z,19.20
2019-04-06T14:37:34.754Z,19.07
2019-04-06T14:40:41.802Z,18.27
2019-04-06T14:43:31.184Z,18.50
2019-04-06T14:46:17.918Z,17.47
2019-04-06T14:49:27.905Z,16.93
2019-04-06T14:52:07.961Z,23.57
2019-04-06T14:55:08.900Z,15.87
2019-04-06T14:58:03.710Z,15.00
2019-04-06T15:00:44.712Z,14.97
2019-04-06T15:03:35.913Z,15.40
2019-04-06T15:06:43.170Z,15.37
2019-04-06T15:09:28.538Z,15.05
2019-04-06T15:12:07.085Z,18.90
2019-04-06T15:15:07.789Z,18.90
2019-04-06T15:17:50.112Z,15.33
2019-04-06T15:20:37.338Z,18.30
2019-04-06T15:23:23.634Z,23.83
2019-04-06T15:26:21.190Z,26.27
2019-04-06T15:29:12.892Z,27.90
2019-04-06T15:32:01.178Z,27.00
2019-04-06T15:34:52.724Z,31.70
2019-04-06T15:37:39.985Z,54.25
2019-04-06T15:40:28.803Z,28.63
2019-04-06T15:43:14.851Z,29.27
2019-04-06T15:46:18.785Z,31.20
2019-04-06T15:49:22.059Z,29.20
2019-04-06T15:52:14.250Z,29.35
2019-04-06T15:55:17.852Z,29.97
2019-04-06T15:57:58.165Z,30.97
2019-04-06T16:00:45.353Z,41.23
2019-04-06T16:03:25.797Z,29.10
2019-04-06T16:06:09.781Z,33.88
2019-04-06T16:09:04.685Z,34.27
2019-04-06T16:12:02.521Z,27.93
2019-04-06T16:14:51.279Z,29.10
2019-04-06T16:17:31.207Z,29.90
2019-04-06T16:20:18.594Z,29.23
2019-04-06T16:23:01.559Z,27.77
2019-04-06T16:25:37.500Z,32.42
2019-04-06T16:28:23.092Z,30.10
2019-04-06T16:31:21.019Z,35.43
2019-04-06T16:34:01.415Z,29.03
2019-04-06T16:36:55.647Z,33.77
2019-04-06T16:39:42.880Z,29.20
2019-04-06T16:42:38.217Z,29.37
2019-04-06T16:45:18.064Z,35.70
2019-04-06T16:48:05.862Z,34.27
2019-04-06T16:50:40.925Z,30.87
2019-04-06T16:53:32.865Z,30.77
2019-04-06T16:56:08.861Z,30.85
2019-04-06T16:58:59.206Z,30.83
2019-04-06T17:01:36.373Z,29.07
2019-04-06T17:04:23.756Z,29.53
2019-04-06T17:07:12.056Z,29.77
2019-04-06T17:10:00.514Z,30.27
2019-04-06T17:12:58.121Z,27.73
2019-04-06T17:15:46.786Z,30.43
2019-04-06T17:18:35.148Z,29.17
2019-04-06T17:21:13.748Z,32.00
2019-04-06T17:24:11.300Z,29.43
2019-04-06T17:26:59.727Z,28.73
2019-04-06T17:29:45.988Z,28.70
2019-04-06T17:32:41.519Z,29.12
2019-04-06T17:35:25.588Z,28.40
2019-04-06T17:38:29.430Z,31.70
2019-04-06T17:41:05.266Z,29.90
2019-04-06T17:44:02.872Z,31.10
2019-04-06T17:47:06.431Z,29.30
2019-04-06T17:49:47.388Z,31.13
2019-04-06T17:52:47.771Z,31.47
2019-04-06T17:55:39.378Z,30.27
2019-04-06T17:58:19.013Z,29.77
2019-04-06T18:01:15.365Z,31.13
2019-04-06T18:04:02.896Z,31.73
2019-04-06T18:07:07.455Z,28.23
2019-04-06T18:09:46.213Z,29.57
2019-04-06T18:12:29.317Z,29.70
2019-04-06T18:14:58.693Z,31.00
2019-04-06T18:17:28.225Z,32.75
2019-04-06T18:19:57.598Z,29.12
2019-04-06T18:22:26.993Z,27.67
2019-04-06T18:24:56.920Z,30.13
2019-04-06T18:27:26.436Z,31.65
2019-04-06T18:29:55.873Z,30.13
2019-04-06T18:32:57.819Z,30.95
2019-04-06T18:35:19.178Z,26.03
2019-04-06T18:37:57.665Z,30.70
2019-04-06T18:40:28.556Z,30.63
2019-04-06T18:42:58.014Z,32.80
2019-04-06T18:45:29.942Z,31.10
2019-04-06T18:47:59.377Z,33.30
2019-04-06T18:50:35.994Z,32.03
2019-04-06T18:53:00.277Z,33.03
2019-04-06T18:55:29.720Z,32.20
2019-04-06T18:58:08.672Z,32.23
2019-04-06T19:00:30.944Z,32.77
2019-04-06T19:03:10.572Z,33.37
2019-04-06T19:05:31.578Z,33.77
2019-04-06T19:08:44.592Z,36.17
2019-04-06T19:14:12.382Z,34.87
2019-04-06T19:16:42.150Z,35.13
2019-04-06T19:19:11.671Z,36.50
2019-04-06T19:21:41.113Z,36.10
2019-04-06T19:24:10.595Z,35.70
2019-04-06T19:26:40.028Z,33.47
2019-04-06T19:29:09.539Z,35.73
2019-04-06T19:31:38.934Z,34.53
2019-04-06T19:34:08.374Z,37.27
2019-04-06T19:36:38.380Z,35.93
2019-04-06T19:39:13.943Z,34.63
2019-04-06T19:41:43.343Z,35.40
2019-04-06T19:44:13.374Z,35.37
2019-04-06T19:46:45.949Z,33.37
2019-04-06T19:49:16.087Z,35.25
2019-04-06T19:51:46.575Z,36.15
2019-04-06T19:54:16.481Z,35.13
2019-04-06T19:56:46.368Z,37.97
2019-04-06T20:01:57.595Z,37.75
2019-04-06T20:04:27.142Z,36.30
2019-04-06T20:06:56.965Z,35.97
2019-04-06T20:09:29.141Z,35.33
2019-04-06T20:12:06.100Z,35.47
2019-04-06T20:14:30.067Z,37.13
2019-04-06T20:16:59.773Z,36.13
2019-04-06T20:19:29.544Z,36.87
2019-04-06T20:21:59.522Z,34.13
2019-04-06T20:24:29.958Z,36.08
2019-04-06T20:26:59.583Z,34.10
2019-04-06T20:29:28.974Z,36.80
2019-04-06T20:31:58.744Z,33.70
2019-04-06T20:34:28.466Z,35.70
2019-04-06T20:36:58.020Z,36.73
2019-04-06T20:39:28.422Z,34.75
2019-04-06T20:41:57.953Z,38.47
2019-04-06T20:44:27.806Z,37.90
2019-04-06T20:46:57.465Z,38.42
2019-04-06T20:49:27.386Z,36.27
2019-04-06T20:51:58.790Z,37.33
2019-04-06T20:54:28.137Z,38.33
2019-04-06T20:56:58.937Z,38.67
2019-04-06T20:59:28.601Z,39.93
2019-04-06T21:02:01.508Z,39.00
2019-04-06T21:04:30.921Z,38.67
2019-04-06T21:07:00.340Z,40.43
2019-04-06T21:09:32.354Z,40.30
2019-04-06T21:12:06.878Z,40.10
2019-04-06T21:14:36.258Z,42.50
2019-04-06T21:17:06.101Z,40.83
2019-04-06T21:19:36.112Z,38.60
2019-04-06T21:22:05.792Z,39.77
2019-04-06T21:24:35.238Z,39.63
2019-04-06T21:27:04.633Z,41.40
2019-04-06T21:29:34.577Z,40.00
2019-04-06T21:32:04.277Z,41.77
2019-04-06T21:34:33.988Z,40.77
2019-04-06T21:37:06.956Z,41.20
2019-04-06T21:39:36.986Z,40.90
2019-04-06T21:42:10.689Z,40.27
2019-04-06T21:44:40.433Z,41.68
2019-04-06T21:47:09.996Z,42.57
2019-04-06T21:49:39.872Z,40.57
2019-04-06T21:52:09.379Z,40.53
2019-04-06T21:54:39.740Z,41.10
2019-04-06T21:57:09.409Z,42.77
2019-04-06T21:59:40.483Z,43.90
2019-04-06T22:02:10.374Z,39.93
2019-04-06T22:04:39.775Z,41.87
2019-04-06T22:07:09.786Z,40.03
2019-04-06T22:09:39.987Z,41.67
2019-04-06T22:12:09.946Z,41.63
2019-04-06T22:14:39.656Z,41.70
2019-04-06T22:17:10.835Z,41.53
2019-04-06T22:19:40.951Z,44.27
2019-04-06T22:22:11.063Z,40.93
2019-04-06T22:24:40.762Z,42.00
2019-04-06T22:27:10.250Z,44.00
2019-04-06T22:29:40.671Z,43.70
2019-04-06T22:32:10.477Z,42.77
2019-04-06T22:34:41.538Z,40.97
2019-04-06T22:37:11.106Z,40.30
2019-04-06T22:39:40.985Z,41.20
2019-04-06T22:42:11.150Z,40.30
2019-04-06T22:44:40.873Z,41.93
2019-04-06T22:47:10.378Z,42.17
2019-04-06T22:49:39.818Z,42.13
2019-04-06T22:52:09.295Z,42.37
2019-04-06T22:54:39.152Z,42.60
2019-04-06T22:57:10.490Z,43.97
2019-04-06T22:59:41.382Z,41.83
2019-04-06T23:02:11.954Z,41.83
2019-04-06T23:04:58.492Z,42.67
2019-04-06T23:07:28.087Z,43.97
2019-04-06T23:09:57.709Z,44.77
2019-04-06T23:12:27.632Z,46.63
2019-04-06T23:14:57.279Z,43.15
2019-04-06T23:17:27.298Z,40.80
2019-04-06T23:19:56.891Z,45.57
2019-04-06T23:22:28.581Z,41.07
2019-04-06T23:24:58.092Z,41.37
2019-04-06T23:27:27.475Z,41.45
2019-04-06T23:29:57.004Z,41.83
2019-04-06T23:32:26.446Z,42.53
2019-04-06T23:34:59.885Z,42.90
2019-04-06T23:37:27.146Z,44.73
2019-04-06T23:39:57.513Z,42.38
2019-04-06T23:42:27.131Z,42.13
2019-04-06T23:44:56.947Z,42.50
2019-04-06T23:47:27.345Z,43.33
2019-04-06T23:49:57.445Z,46.63
2019-04-06T23:52:27.466Z,45.08
2019-04-06T23:54:57.550Z,43.87
2019-04-06T23:57:26.993Z,45.73
2019-04-06T23:59:56.529Z,43.80
